Time;durP1;ratioP1;P1;durP2;ratioP2;P2;SDS_P1;SDS_P2;PMS_P1;PMS_P2;Temp;Humidity;BMP_temperature;BMP_pressure;BME280_temperature;BME280_humidity;BME280_pressure;Samples;Min_cycle;Max_cycle;Signal;HPM_P1;HPM_P2
2022/11/04 00:00:48;;;;;;;;;;;;;;;11.76;79.18;97332.16;7394809;19;19919;-80
2022/11/04 00:03:15;;;;;;;;;;;;;;;11.73;79.29;97343.13;7388439;19;19949;-80
2022/11/04 00:05:41;;;;;;;;;;;;;;;11.84;78.82;97345.28;7388949;19;19943;-80
2022/11/04 00:08:23;;;;;;;;;;;;;;;11.79;78.88;97358.28;7392462;19;19923;-79
2022/11/04 00:13:38;;;;;;;;;;;;;;;11.69;79.15;97349.84;7392406;19;19907;-79
2022/11/04 00:18:50;;;;;;;;;;;;;;;11.65;79.27;97346.72;7393621;19;19923;-79
2022/11/04 00:29:33;;;;;;;;;;;;;;;11.68;79.57;97348.19;7397467;19;19915;-80
2022/11/04 00:34:45;;;;;;;;;;;;;;;11.61;79.73;97352.56;7390789;19;19922;-81
2022/11/04 00:37:12;;;;;;;;;;;;;;;11.62;79.73;97359.53;7397523;19;20358;-79
2022/11/04 00:39:38;;;;;;;;;;;;;;;11.57;79.66;97353.97;7392488;19;19918;-80
2022/11/04 00:42:05;;;;;;;;;;;;;;;11.50;79.86;97353.06;7392250;19;19918;-81
2022/11/04 00:44:31;;;;;;;;;;;;;;;11.51;79.84;97352.91;7393592;19;20018;-80
2022/11/04 00:46:58;;;;;;;;;;;;;;;11.57;80.06;97353.97;7392500;19;19943;-81
2022/11/04 00:49:24;;;;;;;;;;;;;;;11.59;80.01;97358.09;7387289;19;19919;-80
2022/11/04 00:51:51;;;;;;;;;;;;;;;11.60;80.04;97354.41;7391603;19;19947;-80
2022/11/04 00:54:17;;;;;;;;;;;;;;;11.54;80.32;97357.00;7390572;19;19983;-79
2022/11/04 00:56:44;;;;;;;;;;;;;;;11.65;79.86;97353.84;7390304;19;19955;-80
2022/11/04 00:59:10;;;;;;;;;;;;;;;11.74;79.93;97359.84;7392065;19;19919;-81
2022/11/04 01:01:40;;;;;;;;;;;;;;;11.70;79.73;97363.91;7393172;19;19922;-80
2022/11/04 01:04:08;;;;;;;;;;;;;;;11.85;79.58;97368.16;7389453;19;20628;-80
2022/11/04 01:06:34;;;;;;;;;;;;;;;11.81;79.30;97368.69;7392902;19;20339;-78
2022/11/04 01:09:02;;;;;;;;;;;;;;;11.81;79.27;97360.75;7392095;19;19922;-80
2022/11/04 01:11:30;;;;;;;;;;;;;;;11.81;79.46;97366.88;7389035;19;20347;-79
2022/11/04 01:13:56;;;;;;;;;;;;;;;11.82;78.97;97373.81;7386868;19;20370;-81
2022/11/04 01:16:23;;;;;;;;;;;;;;;11.74;78.85;97363.34;7391283;19;19919;-79
2022/11/04 01:18:50;;;;;;;;;;;;;;;11.69;78.71;97367.53;7393179;19;19925;-81
2022/11/04 01:21:16;;;;;;;;;;;;;;;11.71;78.55;97370.84;7391298;19;20445;-80
2022/11/04 01:23:43;;;;;;;;;;;;;;;11.80;78.36;97375.84;7390981;19;19918;-80
2022/11/04 01:26:14;;;;;;;;;;;;;;;11.70;78.20;97380.63;7393344;19;19947;-79
2022/11/04 01:28:40;;;;;;;;;;;;;;;11.64;78.33;97392.78;7387200;19;19922;-79
2022/11/04 01:31:11;;;;;;;;;;;;;;;11.72;78.64;97388.38;7387120;19;19919;-80
2022/11/04 01:33:38;;;;;;;;;;;;;;;11.70;78.20;97391.22;7388254;19;19923;-79
2022/11/04 01:36:05;;;;;;;;;;;;;;;11.73;78.20;97392.66;7388982;19;19951;-81
2022/11/04 01:38:32;;;;;;;;;;;;;;;11.79;78.06;97382.13;7396199;19;19922;-80
2022/11/04 01:40:59;;;;;;;;;;;;;;;11.80;78.00;97383.78;7393992;19;19911;-81
2022/11/04 01:43:42;;;;;;;;;;;;;;;11.74;78.11;97386.34;7389702;19;20335;-79
2022/11/04 01:46:10;;;;;;;;;;;;;;;11.68;78.59;97382.63;7385748;19;19923;-80
2022/11/04 01:48:36;;;;;;;;;;;;;;;11.63;78.59;97382.38;7387579;19;19915;-78
2022/11/04 01:51:03;;;;;;;;;;;;;;;11.62;78.91;97378.91;7390091;19;19923;-79
2022/11/04 01:53:31;;;;;;;;;;;;;;;11.64;78.91;97381.38;7387084;19;19947;-79
2022/11/04 01:55:58;;;;;;;;;;;;;;;11.62;78.75;97384.19;7389729;19;19915;-79
2022/11/04 01:58:25;;;;;;;;;;;;;;;11.51;78.79;97389.16;7387998;19;19943;-78
2022/11/04 02:00:52;;;;;;;;;;;;;;;11.50;78.94;97380.38;7390782;19;20573;-77
2022/11/04 02:03:37;;;;;;;;;;;;;;;11.54;78.02;97386.97;7385579;19;19918;-79
2022/11/04 02:06:04;;;;;;;;;;;;;;;11.56;77.95;97374.34;7386345;19;19988;-80
2022/11/04 02:08:31;;;;;;;;;;;;;;;11.53;78.24;97379.19;7390171;19;20583;-78
2022/11/04 02:10:58;;;;;;;;;;;;;;;11.59;77.68;97384.56;7389136;19;19915;-80
2022/11/04 02:13:25;;;;;;;;;;;;;;;11.53;78.14;97374.72;7385424;19;19927;-79
2022/11/04 02:15:55;;;;;;;;;;;;;;;11.55;78.03;97364.75;7392244;19;19918;-81
2022/11/04 02:18:24;;;;;;;;;;;;;;;11.51;78.06;97355.56;7389402;19;19967;-78
2022/11/04 02:21:00;;;;;;;;;;;;;;;11.59;77.69;97362.56;7390214;19;19944;-82
2022/11/04 02:23:27;;;;;;;;;;;;;;;11.42;77.82;97360.13;7390852;19;19922;-81
2022/11/04 02:26:09;;;;;;;;;;;;;;;11.37;77.48;97349.28;7392253;19;20042;-79
2022/11/04 02:28:38;;;;;;;;;;;;;;;11.45;78.03;97355.47;7392378;19;19911;-78
2022/11/04 02:31:11;;;;;;;;;;;;;;;11.41;77.83;97376.22;7395439;19;19915;-79
2022/11/04 02:33:44;;;;;;;;;;;;;;;11.41;78.35;97382.31;7390243;19;19919;-80
2022/11/04 02:36:13;;;;;;;;;;;;;;;11.36;78.49;97371.47;7387284;19;19957;-79
2022/11/04 02:38:59;;;;;;;;;;;;;;;11.16;77.61;97381.81;7390978;19;19951;-81
2022/11/04 02:41:30;;;;;;;;;;;;;;;11.30;77.62;97380.16;7393169;19;19948;-81
2022/11/04 02:43:56;;;;;;;;;;;;;;;11.39;77.25;97379.03;7394693;19;19915;-80
2022/11/04 02:46:41;;;;;;;;;;;;;;;11.30;77.07;97374.84;7400620;19;19948;-81
2022/11/04 02:49:09;;;;;;;;;;;;;;;11.12;77.77;97372.59;7397766;19;19923;-81
2022/11/04 02:51:44;;;;;;;;;;;;;;;11.07;77.24;97374.16;7396796;19;19915;-78
2022/11/04 02:54:20;;;;;;;;;;;;;;;11.23;77.04;97381.06;7393965;19;20571;-80
2022/11/04 02:56:48;;;;;;;;;;;;;;;11.28;77.11;97397.22;7396786;19;19923;-80
2022/11/04 02:59:38;;;;;;;;;;;;;;;11.30;77.13;97398.69;7396043;19;19923;-80
2022/11/04 03:02:06;;;;;;;;;;;;;;;11.15;77.16;97382.81;7396196;19;19927;-79
2022/11/04 03:04:35;;;;;;;;;;;;;;;11.08;78.03;97383.72;7393928;19;19931;-83
2022/11/04 03:07:01;;;;;;;;;;;;;;;11.09;77.93;97390.66;7396792;19;19918;-80
2022/11/04 03:09:28;;;;;;;;;;;;;;;11.09;77.59;97407.38;7391743;19;19927;-79
2022/11/04 03:11:56;;;;;;;;;;;;;;;11.02;78.31;97390.56;7391961;19;19943;-81
2022/11/04 03:14:23;;;;;;;;;;;;;;;11.00;77.66;97389.91;7393610;19;19922;-81
2022/11/04 03:16:51;;;;;;;;;;;;;;;11.07;76.60;97376.78;7397518;19;20346;-79
2022/11/04 03:19:25;;;;;;;;;;;;;;;11.08;75.82;97383.72;7395094;19;20346;-78
2022/11/04 03:21:58;;;;;;;;;;;;;;;11.15;76.41;97387.28;7397723;19;19919;-81
2022/11/04 03:24:25;;;;;;;;;;;;;;;11.19;76.38;97396.50;7392413;19;19955;-81
2022/11/04 03:27:02;;;;;;;;;;;;;;;11.11;76.70;97407.16;7393607;19;20305;-79
2022/11/04 03:30:01;;;;;;;;;;;;;;;11.05;76.83;97405.25;7393822;19;19911;-79
2022/11/04 03:32:35;;;;;;;;;;;;;;;11.00;77.30;97405.78;7394928;19;19943;-82
2022/11/04 03:35:02;;;;;;;;;;;;;;;10.93;77.71;97410.19;7394872;19;20006;-82
2022/11/04 03:37:28;;;;;;;;;;;;;;;11.02;77.67;97409.09;7395833;19;19949;-80
2022/11/04 03:39:55;;;;;;;;;;;;;;;10.95;77.61;97418.75;7395748;19;19918;-81
2022/11/04 03:42:22;;;;;;;;;;;;;;;10.98;77.87;97419.22;7404434;19;19919;-77
2022/11/04 03:44:49;;;;;;;;;;;;;;;10.91;77.67;97425.44;7416508;19;19923;-77
2022/11/04 03:47:16;;;;;;;;;;;;;;;10.84;77.50;97430.59;7408641;19;19915;-80
2022/11/04 03:49:50;;;;;;;;;;;;;;;10.79;78.06;97429.50;7395297;19;19955;-81
2022/11/04 03:52:16;;;;;;;;;;;;;;;10.72;77.69;97442.66;7395644;19;20627;-79
2022/11/04 03:54:43;;;;;;;;;;;;;;;10.79;77.88;97440.91;7392702;19;19943;-80
2022/11/04 03:57:13;;;;;;;;;;;;;;;10.85;78.26;97447.28;7395564;19;20647;-81
2022/11/04 03:59:54;;;;;;;;;;;;;;;10.90;78.02;97448.44;7391518;19;20339;-80
2022/11/04 04:02:21;;;;;;;;;;;;;;;10.99;77.85;97446.50;7394987;19;19948;-80
2022/11/04 04:04:47;;;;;;;;;;;;;;;11.10;76.76;97453.19;7393905;19;19920;-81
2022/11/04 04:07:15;;;;;;;;;;;;;;;11.07;76.78;97448.25;7395314;19;19926;-80
2022/11/04 04:10:02;;;;;;;;;;;;;;;10.98;76.90;97440.41;7392896;19;19926;-80
2022/11/04 04:12:33;;;;;;;;;;;;;;;10.94;77.06;97433.00;7396339;19;19943;-82
2022/11/04 04:15:06;;;;;;;;;;;;;;;11.01;76.97;97433.94;7394564;19;19919;-82
2022/11/04 04:17:36;;;;;;;;;;;;;;;10.93;77.18;97431.38;7390264;19;20260;-82
2022/11/04 04:20:22;;;;;;;;;;;;;;;10.75;77.09;97429.88;7390923;19;19919;-79
2022/11/04 04:22:50;;;;;;;;;;;;;;;10.84;77.14;97449.13;7396870;19;20267;-78
2022/11/04 04:28:02;;;;;;;;;;;;;;;10.75;77.44;97432.50;7405633;19;20334;-77
2022/11/04 04:30:29;;;;;;;;;;;;;;;10.68;77.38;97430.75;7399860;19;19914;-81
2022/11/04 04:33:00;;;;;;;;;;;;;;;10.66;77.68;97424.81;7390185;19;20545;-79
2022/11/04 04:35:43;;;;;;;;;;;;;;;10.80;77.86;97439.09;7391631;19;19919;-82
2022/11/04 04:46:48;;;;;;;;;;;;;;;10.92;76.16;97451.69;7394388;19;20867;-81
2022/11/04 04:49:15;;;;;;;;;;;;;;;10.94;76.17;97444.41;7388049;19;19915;-79
2022/11/04 04:51:42;;;;;;;;;;;;;;;10.90;76.17;97445.78;7390834;19;19943;-79
2022/11/04 04:54:09;;;;;;;;;;;;;;;10.76;76.50;97447.38;7390923;19;19931;-79
2022/11/04 04:56:35;;;;;;;;;;;;;;;10.69;77.04;97438.53;7392374;19;19923;-79
2022/11/04 04:59:02;;;;;;;;;;;;;;;10.59;76.85;97423.91;7393553;19;19939;-80
2022/11/04 05:01:28;;;;;;;;;;;;;;;10.45;77.34;97401.72;7393303;19;19919;-81
2022/11/04 05:03:55;;;;;;;;;;;;;;;10.53;77.80;97410.41;7389449;19;19970;-79
2022/11/04 05:06:22;;;;;;;;;;;;;;;10.65;77.40;97408.13;7385995;19;19919;-77
2022/11/04 05:08:48;;;;;;;;;;;;;;;10.50;77.10;97379.00;7390384;19;20320;-81
2022/11/04 05:11:15;;;;;;;;;;;;;;;10.43;77.45;97366.72;7391961;19;19926;-79
2022/11/04 05:13:41;;;;;;;;;;;;;;;10.47;77.60;97365.34;7391376;19;19922;-79
2022/11/04 05:16:09;;;;;;;;;;;;;;;10.44;77.55;97363.88;7391674;19;19918;-77
2022/11/04 05:18:35;;;;;;;;;;;;;;;10.40;77.56;97359.97;7389576;19;19922;-79
2022/11/04 05:21:03;;;;;;;;;;;;;;;10.33;77.56;97359.84;7388010;19;19918;-82
2022/11/04 05:23:30;;;;;;;;;;;;;;;10.44;77.78;97358.59;7390419;19;19923;-81
2022/11/04 05:25:57;;;;;;;;;;;;;;;10.45;77.84;97365.53;7394119;19;19919;-80
2022/11/04 05:28:24;;;;;;;;;;;;;;;10.38;77.65;97371.72;7392865;19;19926;-81
2022/11/04 05:30:50;;;;;;;;;;;;;;;10.30;77.93;97383.19;7394104;19;19955;-82
2022/11/04 05:33:17;;;;;;;;;;;;;;;10.23;78.12;97388.31;7391578;19;19944;-81
2022/11/04 05:35:43;;;;;;;;;;;;;;;10.22;78.21;97407.00;7393908;19;19922;-80
2022/11/04 05:38:10;;;;;;;;;;;;;;;10.09;78.04;97389.09;7392808;19;19934;-80
2022/11/04 05:40:36;;;;;;;;;;;;;;;10.12;78.36;97394.03;7391180;19;19937;-80
2022/11/04 05:43:03;;;;;;;;;;;;;;;10.10;78.63;97396.81;7389388;19;19919;-78
2022/11/04 05:45:30;;;;;;;;;;;;;;;10.12;78.59;97396.66;7394092;19;19939;-80
2022/11/04 05:47:58;;;;;;;;;;;;;;;10.15;78.50;97392.84;7394346;19;19911;-80
2022/11/04 05:50:25;;;;;;;;;;;;;;;10.28;78.20;97401.84;7392663;19;19939;-83
2022/11/04 05:52:51;;;;;;;;;;;;;;;10.33;77.03;97403.97;7391292;19;19944;-81
2022/11/04 05:55:18;;;;;;;;;;;;;;;10.41;76.49;97400.44;7390277;19;20387;-78
2022/11/04 05:57:44;;;;;;;;;;;;;;;10.28;76.28;97401.03;7390498;19;19911;-80
2022/11/04 06:00:11;;;;;;;;;;;;;;;10.41;76.28;97393.31;7391836;19;20406;-79
2022/11/04 06:02:38;;;;;;;;;;;;;;;10.28;76.86;97391.28;7392784;19;19918;-79
2022/11/04 06:05:05;;;;;;;;;;;;;;;10.28;76.96;97387.81;7390191;19;19919;-79
2022/11/04 06:07:31;;;;;;;;;;;;;;;10.20;76.94;97377.28;7390669;19;19923;-79
2022/11/04 06:09:59;;;;;;;;;;;;;;;10.25;77.25;97385.50;7391949;19;22351;-80
2022/11/04 06:12:25;;;;;;;;;;;;;;;10.14;77.29;97388.53;7389278;19;19921;-79
2022/11/04 06:14:52;;;;;;;;;;;;;;;10.07;77.82;97396.38;7389173;19;20272;-79
2022/11/04 06:17:19;;;;;;;;;;;;;;;10.08;77.83;97398.84;7396692;19;19919;-78
2022/11/04 06:19:46;;;;;;;;;;;;;;;10.09;78.27;97407.59;7397014;19;19951;-80
2022/11/04 06:22:13;;;;;;;;;;;;;;;10.08;78.63;97409.41;7396832;19;19914;-79
2022/11/04 06:24:43;;;;;;;;;;;;;;;10.07;78.59;97412.22;7393329;19;19923;-80
2022/11/04 06:27:10;;;;;;;;;;;;;;;10.13;78.51;97408.06;7400418;19;19918;-80
2022/11/04 06:29:40;;;;;;;;;;;;;;;10.07;79.16;97420.97;7393885;19;19944;-79
2022/11/04 06:32:11;;;;;;;;;;;;;;;10.18;79.10;97440.06;7394127;19;19926;-79
2022/11/04 06:34:37;;;;;;;;;;;;;;;10.29;78.88;97437.03;7394757;19;19919;-79
2022/11/04 06:37:04;;;;;;;;;;;;;;;10.29;78.81;97444.97;7400660;19;19919;-79
2022/11/04 06:39:31;;;;;;;;;;;;;;;10.28;78.90;97433.56;7394111;19;19923;-79
2022/11/04 06:41:57;;;;;;;;;;;;;;;10.27;78.97;97437.22;7397309;19;20342;-80
2022/11/04 06:44:30;;;;;;;;;;;;;;;10.28;79.12;97448.63;7392259;19;19919;-79
2022/11/04 06:46:57;;;;;;;;;;;;;;;10.29;79.25;97448.44;7395233;19;19955;-79
2022/11/04 06:49:23;;;;;;;;;;;;;;;10.27;79.11;97446.94;7394264;19;19915;-79
2022/11/04 06:51:50;;;;;;;;;;;;;;;10.36;79.24;97439.81;7397222;19;20362;-79
2022/11/04 06:54:17;;;;;;;;;;;;;;;10.48;79.15;97439.22;7391932;19;20086;-79
2022/11/04 06:56:44;;;;;;;;;;;;;;;10.60;78.68;97433.50;7399194;19;19926;-80
2022/11/04 06:59:14;;;;;;;;;;;;;;;10.63;78.69;97439.22;7395671;19;19936;-80
2022/11/04 07:01:41;;;;;;;;;;;;;;;10.72;78.34;97432.06;7390675;19;19930;-80
2022/11/04 07:04:08;;;;;;;;;;;;;;;10.64;78.34;97432.97;7387765;19;19939;-81
2022/11/04 07:06:34;;;;;;;;;;;;;;;10.69;78.16;97429.75;7394514;19;19948;-80
2022/11/04 07:09:06;;;;;;;;;;;;;;;10.81;77.64;97433.63;7395704;19;19922;-80
2022/11/04 07:11:33;;;;;;;;;;;;;;;10.68;76.98;97436.06;7396099;19;19935;-80
2022/11/04 07:14:00;;;;;;;;;;;;;;;10.72;76.76;97426.78;7414226;19;19933;-79
2022/11/04 07:16:26;;;;;;;;;;;;;;;10.64;77.23;97418.91;7410327;19;20379;-79
2022/11/04 07:18:53;;;;;;;;;;;;;;;10.79;76.52;97417.09;7397354;19;19931;-81
2022/11/04 07:21:20;;;;;;;;;;;;;;;10.81;76.49;97407.16;7391551;19;20035;-80
2022/11/04 07:23:47;;;;;;;;;;;;;;;10.80;76.15;97410.81;7393047;19;19923;-80
2022/11/04 07:26:13;;;;;;;;;;;;;;;10.69;76.30;97404.16;7396554;19;19929;-80
2022/11/04 07:28:40;;;;;;;;;;;;;;;10.65;76.84;97404.69;7394481;19;19923;-80
2022/11/04 07:31:07;;;;;;;;;;;;;;;10.79;76.76;97405.69;7393503;19;19930;-80
2022/11/04 07:33:34;;;;;;;;;;;;;;;10.65;77.00;97405.50;7392039;19;19927;-80
2022/11/04 07:36:04;;;;;;;;;;;;;;;10.74;77.13;97408.88;7389003;19;22744;-80
2022/11/04 07:38:34;;;;;;;;;;;;;;;10.66;77.25;97404.47;7391537;19;19913;-79
2022/11/04 07:41:04;;;;;;;;;;;;;;;10.59;77.58;97403.56;7395563;19;20517;-81
2022/11/04 07:43:30;;;;;;;;;;;;;;;10.62;77.61;97407.69;7392018;19;19915;-81
2022/11/04 07:45:58;;;;;;;;;;;;;;;10.68;78.25;97410.41;7397729;19;19935;-82
2022/11/04 07:48:25;;;;;;;;;;;;;;;10.72;78.10;97409.06;7395703;19;19915;-80
2022/11/04 07:50:55;;;;;;;;;;;;;;;10.70;78.18;97411.06;7391740;19;19939;-80
2022/11/04 07:53:22;;;;;;;;;;;;;;;10.82;77.94;97400.88;7384012;19;19951;-80
2022/11/04 07:55:49;;;;;;;;;;;;;;;10.95;77.38;97403.72;7388370;19;20383;-81
2022/11/04 07:58:17;;;;;;;;;;;;;;;11.10;76.85;97392.31;7391347;19;20330;-80
2022/11/04 08:00:44;;;;;;;;;;;;;;;11.11;76.70;97388.63;7391458;19;19911;-81
2022/11/04 08:03:11;;;;;;;;;;;;;;;11.14;76.57;97396.25;7390874;19;19915;-80
2022/11/04 08:05:38;;;;;;;;;;;;;;;10.97;76.75;97390.28;7389106;19;19923;-80
2022/11/04 08:08:05;;;;;;;;;;;;;;;11.09;76.73;97386.19;7386211;19;20675;-80
2022/11/04 08:10:33;;;;;;;;;;;;;;;10.96;76.95;97386.81;7389632;19;19991;-80
2022/11/04 08:13:00;;;;;;;;;;;;;;;11.24;76.99;97393.28;7392585;19;19919;-81
2022/11/04 08:15:28;;;;;;;;;;;;;;;11.28;77.14;97392.75;7395307;19;19926;-79
2022/11/04 08:17:54;;;;;;;;;;;;;;;11.52;77.01;97388.16;7392621;19;19930;-81
2022/11/04 08:20:22;;;;;;;;;;;;;;;11.63;76.99;97398.25;7392754;19;19930;-79
2022/11/04 08:22:51;;;;;;;;;;;;;;;11.65;76.89;97401.53;7395497;19;19952;-81
2022/11/04 08:25:18;;;;;;;;;;;;;;;11.78;76.64;97391.09;7390887;19;19914;-78
2022/11/04 08:27:45;;;;;;;;;;;;;;;11.82;76.53;97387.06;7388196;19;19926;-79
2022/11/04 08:30:11;;;;;;;;;;;;;;;11.90;75.99;97396.78;7389595;19;19914;-77
2022/11/04 08:32:38;;;;;;;;;;;;;;;12.13;75.50;97412.47;7392880;19;19919;-78
2022/11/04 08:35:05;;;;;;;;;;;;;;;12.27;74.98;97411.59;7390372;19;19918;-79
2022/11/04 08:37:31;;;;;;;;;;;;;;;12.32;74.62;97410.19;7393265;19;19919;-77
2022/11/04 08:39:58;;;;;;;;;;;;;;;12.41;74.43;97414.38;7394055;19;19923;-82
2022/11/04 08:42:25;;;;;;;;;;;;;;;12.36;74.70;97420.25;7390609;19;19919;-80
2022/11/04 08:44:51;;;;;;;;;;;;;;;12.45;74.43;97415.63;7386533;19;20275;-81
2022/11/04 08:47:18;;;;;;;;;;;;;;;12.32;73.78;97416.31;7395880;19;19949;-80
2022/11/04 08:49:44;;;;;;;;;;;;;;;12.45;73.78;97415.63;7393355;19;20339;-82
2022/11/04 08:52:11;;;;;;;;;;;;;;;12.34;73.98;97402.88;7393660;19;19926;-80
2022/11/04 08:54:38;;;;;;;;;;;;;;;12.40;73.35;97402.97;7393036;19;20393;-80
2022/11/04 08:57:04;;;;;;;;;;;;;;;12.43;73.62;97399.09;7395326;19;19923;-81
2022/11/04 08:59:31;;;;;;;;;;;;;;;12.48;73.31;97392.22;7391759;19;20028;-79
2022/11/04 09:01:57;;;;;;;;;;;;;;;12.52;73.34;97406.72;7393017;19;20268;-80
2022/11/04 09:04:24;;;;;;;;;;;;;;;12.46;73.08;97407.50;7391579;19;19940;-77
2022/11/04 09:06:51;;;;;;;;;;;;;;;12.39;72.33;97411.09;7394251;19;19925;-78
2022/11/04 09:09:18;;;;;;;;;;;;;;;12.33;72.61;97422.47;7393207;19;19929;-79
2022/11/04 09:11:44;;;;;;;;;;;;;;;12.18;71.12;97422.53;7394449;19;19944;-78
2022/11/04 09:14:11;;;;;;;;;;;;;;;12.23;71.68;97431.56;7392474;19;19919;-82
2022/11/04 09:16:39;;;;;;;;;;;;;;;12.24;71.97;97435.03;7391715;19;19918;-80
2022/11/04 09:19:06;;;;;;;;;;;;;;;12.35;72.83;97431.88;7388895;19;19918;-79
2022/11/04 09:21:32;;;;;;;;;;;;;;;12.30;72.19;97435.09;7391002;19;19914;-78
2022/11/04 09:23:59;;;;;;;;;;;;;;;12.35;72.10;97434.53;7389757;19;19919;-78
2022/11/04 09:26:25;;;;;;;;;;;;;;;12.48;71.60;97433.81;7391805;19;19940;-80
2022/11/04 09:28:53;;;;;;;;;;;;;;;12.58;71.85;97436.16;7392802;19;19978;-78
2022/11/04 09:31:20;;;;;;;;;;;;;;;12.48;71.10;97442.59;7389868;19;19919;-80
2022/11/04 09:33:47;;;;;;;;;;;;;;;12.40;71.92;97444.56;7384806;19;19922;-78
2022/11/04 09:36:13;;;;;;;;;;;;;;;12.45;71.88;97443.00;7390248;19;19919;-80
2022/11/04 09:38:40;;;;;;;;;;;;;;;12.57;71.26;97439.81;7389491;19;19939;-82
2022/11/04 09:41:08;;;;;;;;;;;;;;;12.47;71.60;97434.81;7392585;19;19932;-79
2022/11/04 09:43:38;;;;;;;;;;;;;;;12.55;70.50;97437.34;7389607;19;19929;-80
2022/11/04 09:46:07;;;;;;;;;;;;;;;12.58;69.37;97442.28;7389701;19;19939;-80
2022/11/04 09:48:36;;;;;;;;;;;;;;;12.75;71.21;97426.91;7388097;19;19927;-80
2022/11/04 09:51:04;;;;;;;;;;;;;;;12.87;71.57;97429.84;7385593;19;19954;-79
2022/11/04 09:53:43;;;;;;;;;;;;;;;12.96;70.62;97426.84;7383894;19;19919;-83
2022/11/04 09:56:20;;;;;;;;;;;;;;;12.96;70.33;97431.34;7390277;19;19947;-80
2022/11/04 09:58:46;;;;;;;;;;;;;;;13.06;69.98;97421.22;7389576;19;20367;-78
2022/11/04 10:01:17;;;;;;;;;;;;;;;12.92;69.69;97414.97;7389776;19;19926;-78
2022/11/04 10:03:53;;;;;;;;;;;;;;;12.96;68.05;97420.72;7385830;19;19923;-80
2022/11/04 10:06:29;;;;;;;;;;;;;;;12.85;68.09;97418.59;7386259;19;19919;-79
2022/11/04 10:09:16;;;;;;;;;;;;;;;12.86;67.35;97415.75;7381730;19;20342;-79
2022/11/04 10:11:42;;;;;;;;;;;;;;;12.85;66.66;97416.78;7389329;19;20369;-80
2022/11/04 10:14:20;;;;;;;;;;;;;;;12.95;68.35;97411.09;7388693;19;19915;-80
2022/11/04 10:16:46;;;;;;;;;;;;;;;13.00;68.72;97407.88;7389404;19;19930;-80
2022/11/04 10:19:30;;;;;;;;;;;;;;;13.09;68.56;97415.50;7384212;19;19937;-80
2022/11/04 10:22:02;;;;;;;;;;;;;;;13.09;69.23;97410.19;7389280;19;19918;-79
2022/11/04 10:24:42;;;;;;;;;;;;;;;13.07;67.21;97414.88;7385633;19;22660;-81
2022/11/04 10:27:13;;;;;;;;;;;;;;;13.00;67.21;97403.38;7388914;19;20558;-79
2022/11/04 10:29:41;;;;;;;;;;;;;;;13.06;66.95;97401.78;7386931;19;19922;-80
2022/11/04 10:32:14;;;;;;;;;;;;;;;13.20;68.10;97397.38;7389298;19;19922;-80
2022/11/04 10:34:49;;;;;;;;;;;;;;;13.18;68.23;97395.72;7379911;19;19926;-78
2022/11/04 10:37:16;;;;;;;;;;;;;;;13.30;68.03;97403.19;7390604;19;19926;-77
2022/11/04 10:39:45;;;;;;;;;;;;;;;13.25;66.58;97403.75;7396277;19;19938;-82
2022/11/04 10:42:13;;;;;;;;;;;;;;;13.28;67.46;97395.41;7387026;19;19989;-81
2022/11/04 10:44:40;;;;;;;;;;;;;;;13.35;66.35;97395.44;7386316;19;19939;-80
2022/11/04 10:47:07;;;;;;;;;;;;;;;13.45;66.28;97395.06;7389450;19;20298;-80
2022/11/04 10:49:48;;;;;;;;;;;;;;;13.37;65.99;97393.38;7387619;19;19964;-81
2022/11/04 10:52:36;;;;;;;;;;;;;;;13.38;65.59;97389.75;7395162;19;19919;-82
2022/11/04 10:55:10;;;;;;;;;;;;;;;13.43;67.17;97386.47;7395675;19;19915;-82
2022/11/04 10:57:37;;;;;;;;;;;;;;;13.51;66.31;97381.81;7390621;19;19923;-82
2022/11/04 11:00:04;;;;;;;;;;;;;;;13.55;65.33;97383.03;7388940;19;19919;-81
2022/11/04 11:02:46;;;;;;;;;;;;;;;13.61;65.46;97386.75;7391931;19;20406;-81
2022/11/04 11:05:23;;;;;;;;;;;;;;;13.61;65.26;97386.75;7391688;19;20266;-80
2022/11/04 11:07:51;;;;;;;;;;;;;;;13.59;66.51;97384.31;7396485;19;19935;-80
2022/11/04 11:10:22;;;;;;;;;;;;;;;13.52;64.48;97378.13;7397215;19;19918;-80
2022/11/04 11:12:51;;;;;;;;;;;;;;;13.64;64.49;97382.88;7394407;19;19921;-80
2022/11/04 11:15:18;;;;;;;;;;;;;;;13.69;64.88;97369.81;7390523;19;20230;-80
2022/11/04 11:17:45;;;;;;;;;;;;;;;13.79;65.63;97373.72;7394463;19;19962;-81
2022/11/04 11:20:13;;;;;;;;;;;;;;;13.90;64.87;97372.34;7391680;19;20049;-81
2022/11/04 11:22:41;;;;;;;;;;;;;;;13.95;64.26;97374.38;7396688;19;19974;-81
2022/11/04 11:25:23;;;;;;;;;;;;;;;14.02;64.75;97372.53;7394637;19;19910;-81
2022/11/04 11:27:56;;;;;;;;;;;;;;;14.01;65.18;97369.06;7395901;19;19922;-81
2022/11/04 11:30:24;;;;;;;;;;;;;;;14.07;66.48;97371.94;7391480;19;19950;-81
2022/11/04 11:32:58;;;;;;;;;;;;;;;14.01;64.09;97363.75;7394829;19;19918;-81
2022/11/04 11:35:26;;;;;;;;;;;;;;;13.99;65.25;97359.66;7393073;19;19911;-81
2022/11/04 11:37:52;;;;;;;;;;;;;;;13.87;63.82;97358.59;7398722;19;20874;-81
2022/11/04 11:40:23;;;;;;;;;;;;;;;13.88;63.05;97354.94;7396077;19;19910;-79
2022/11/04 11:42:50;;;;;;;;;;;;;;;13.92;64.46;97348.19;7393407;19;19947;-79
2022/11/04 11:45:17;;;;;;;;;;;;;;;13.87;66.08;97351.44;7392272;19;20718;-78
2022/11/04 11:47:45;;;;;;;;;;;;;;;13.71;64.73;97355.28;7390101;19;19939;-80
2022/11/04 11:50:14;;;;;;;;;;;;;;;13.94;65.37;97352.28;7390787;19;19927;-80
2022/11/04 11:52:41;;;;;;;;;;;;;;;14.03;64.94;97347.59;7394800;19;19919;-80
2022/11/04 11:55:11;;;;;;;;;;;;;;;14.12;64.29;97351.69;7393493;19;19926;-79
2022/11/04 11:57:48;;;;;;;;;;;;;;;14.19;64.52;97349.03;7396265;19;19918;-78
2022/11/04 12:00:37;;;;;;;;;;;;;;;14.21;64.40;97347.00;7395306;19;19919;-79
2022/11/04 12:03:14;;;;;;;;;;;;;;;14.19;64.21;97344.56;7390201;19;19911;-78
2022/11/04 12:05:42;;;;;;;;;;;;;;;14.01;64.50;97350.47;7388356;19;19953;-77
2022/11/04 12:08:28;;;;;;;;;;;;;;;14.02;64.81;97348.63;7393769;19;20753;-80
2022/11/04 12:11:19;;;;;;;;;;;;;;;13.92;63.74;97333.03;7395298;19;19919;-79
2022/11/04 12:13:51;;;;;;;;;;;;;;;14.05;63.74;97341.03;7390660;19;19943;-80
2022/11/04 12:16:26;;;;;;;;;;;;;;;13.92;63.14;97343.69;7391453;19;19914;-81
2022/11/04 12:19:11;;;;;;;;;;;;;;;14.12;63.68;97345.56;7389899;19;19959;-80
2022/11/04 12:21:39;;;;;;;;;;;;;;;14.02;64.12;97349.44;7391266;19;19930;-79
2022/11/04 12:24:16;;;;;;;;;;;;;;;14.08;63.88;97353.13;7388967;19;19923;-78
2022/11/04 12:26:49;;;;;;;;;;;;;;;14.08;65.18;97352.28;7393478;19;19948;-78
2022/11/04 12:29:16;;;;;;;;;;;;;;;14.05;62.57;97348.19;7392464;19;19926;-78
2022/11/04 12:32:09;;;;;;;;;;;;;;;13.93;63.63;97353.31;7392294;19;20494;-78
2022/11/04 12:34:46;;;;;;;;;;;;;;;13.88;63.93;97353.09;7387561;19;19922;-77
2022/11/04 12:37:21;;;;;;;;;;;;;;;13.85;66.05;97361.47;7391241;19;19911;-77
2022/11/04 12:40:00;;;;;;;;;;;;;;;13.79;65.25;97356.94;7388233;19;19931;-78
2022/11/04 12:42:47;;;;;;;;;;;;;;;13.81;66.70;97362.91;7389099;19;19962;-78
2022/11/04 12:45:20;;;;;;;;;;;;;;;13.66;67.12;97364.88;7390435;19;19934;-79
2022/11/04 12:47:46;;;;;;;;;;;;;;;13.60;64.43;97363.84;7393219;19;19914;-79
2022/11/04 12:50:16;;;;;;;;;;;;;;;13.76;66.58;97368.00;7392414;19;19926;-80
2022/11/04 12:52:43;;;;;;;;;;;;;;;13.79;64.23;97367.59;7397376;19;19919;-79
2022/11/04 12:55:28;;;;;;;;;;;;;;;13.87;65.88;97370.06;7392469;19;19951;-79
2022/11/04 12:58:02;;;;;;;;;;;;;;;13.97;67.00;97377.66;7389883;19;19982;-79
2022/11/04 13:00:29;;;;;;;;;;;;;;;14.08;66.85;97371.72;7394907;19;20310;-79
2022/11/04 13:03:01;;;;;;;;;;;;;;;14.05;66.13;97370.28;7390335;19;20592;-79
2022/11/04 13:05:51;;;;;;;;;;;;;;;14.13;66.08;97371.13;7390177;19;19927;-79
2022/11/04 13:08:22;;;;;;;;;;;;;;;14.18;65.12;97374.81;7391538;19;19935;-78
2022/11/04 13:10:53;;;;;;;;;;;;;;;14.22;64.40;97381.38;7388433;19;19918;-79
2022/11/04 13:13:31;;;;;;;;;;;;;;;14.05;65.66;97383.59;7389795;19;19937;-79
2022/11/04 13:16:00;;;;;;;;;;;;;;;13.94;65.95;97378.88;7390737;19;19919;-79
2022/11/04 13:18:27;;;;;;;;;;;;;;;13.99;66.49;97387.06;7392831;19;19943;-78
2022/11/04 13:20:54;;;;;;;;;;;;;;;13.91;65.86;97389.09;7389842;19;19919;-78
2022/11/04 13:23:35;;;;;;;;;;;;;;;13.88;67.03;97385.00;7391747;19;19976;-78
2022/11/04 13:26:02;;;;;;;;;;;;;;;13.84;65.20;97391.72;7386011;19;19949;-78
2022/11/04 13:28:29;;;;;;;;;;;;;;;13.84;66.58;97389.06;7382916;19;20355;-78